createdAt,value
2024-03-28T00:00:01.481Z,11.2
2024-03-28T00:01:01.660Z,11.2
2024-03-28T00:02:01.536Z,11.2
2024-03-28T00:03:01.628Z,11.2
2024-03-28T00:04:01.490Z,11.2
2024-03-28T00:05:01.532Z,11.2
2024-03-28T00:06:01.559Z,11.2
2024-03-28T00:07:01.565Z,11.2
2024-03-28T00:08:01.721Z,11.3
2024-03-28T00:09:01.494Z,11.3
2024-03-28T00:10:01.650Z,11.3
2024-03-28T00:11:01.527Z,11.3
2024-03-28T00:12:01.540Z,11.4
2024-03-28T00:13:01.610Z,11.4
2024-03-28T00:14:01.489Z,11.4
2024-03-28T00:15:01.731Z,11.4
2024-03-28T00:16:01.496Z,11.4
2024-03-28T00:17:01.624Z,11.5
2024-03-28T00:18:01.735Z,11.5
2024-03-28T00:19:03.769Z,11.5
2024-03-28T00:21:01.692Z,11.5
2024-03-28T00:22:01.583Z,11.6
2024-03-28T00:23:01.660Z,11.6
2024-03-28T00:24:01.542Z,11.6
2024-03-28T00:25:01.647Z,11.6
2024-03-28T00:26:01.524Z,11.6
2024-03-28T00:27:01.654Z,11.6
2024-03-28T00:28:01.566Z,11.6
2024-03-28T00:29:01.558Z,11.6
2024-03-28T00:30:01.721Z,11.6
2024-03-28T00:32:01.694Z,11.6
2024-03-28T00:33:01.565Z,11.6
2024-03-28T00:34:01.557Z,11.6
2024-03-28T00:35:01.581Z,11.6
2024-03-28T00:36:01.692Z,11.6
2024-03-28T00:37:01.545Z,11.6
2024-03-28T00:38:01.673Z,11.6
2024-03-28T00:39:01.473Z,11.6
2024-03-28T00:40:01.666Z,11.6
2024-03-28T00:41:01.619Z,11.6
2024-03-28T00:42:01.676Z,11.6
2024-03-28T00:43:01.501Z,11.6
2024-03-28T00:44:01.601Z,11.6
2024-03-28T00:45:01.759Z,11.6
2024-03-28T00:46:01.529Z,11.6
2024-03-28T00:47:01.581Z,11.7
2024-03-28T00:48:01.493Z,11.7
2024-03-28T00:49:01.579Z,11.7
2024-03-28T00:50:01.486Z,11.8
2024-03-28T00:51:01.773Z,11.8
2024-03-28T00:52:01.554Z,11.8
2024-03-28T00:53:01.656Z,11.8
2024-03-28T00:54:01.673Z,11.8
2024-03-28T00:55:01.739Z,11.8
2024-03-28T00:56:01.520Z,11.8
2024-03-28T00:57:01.667Z,11.8
2024-03-28T00:58:01.598Z,11.9
2024-03-28T00:59:01.501Z,11.9
2024-03-28T01:00:01.784Z,11.9
2024-03-28T01:01:01.826Z,11.9
2024-03-28T01:03:01.670Z,11.9
2024-03-28T01:04:01.617Z,11.9
2024-03-28T01:05:01.660Z,11.9
2024-03-28T01:06:01.616Z,12
2024-03-28T01:07:01.674Z,12
2024-03-28T01:08:01.679Z,12
2024-03-28T01:09:01.603Z,12
2024-03-28T01:10:01.512Z,12
2024-03-28T01:11:01.604Z,12
2024-03-28T01:12:01.658Z,12.1
2024-03-28T01:13:01.596Z,12.1
2024-03-28T01:14:01.563Z,12.1
2024-03-28T01:15:01.969Z,12.1
2024-03-28T01:16:01.437Z,12.1
2024-03-28T01:17:01.611Z,12
2024-03-28T01:18:02.293Z,12
2024-03-28T01:19:01.461Z,12
2024-03-28T01:20:01.638Z,12.1
2024-03-28T01:21:01.564Z,12
2024-03-28T01:22:01.662Z,12
2024-03-28T01:23:01.526Z,12
2024-03-28T01:24:01.695Z,11.9
2024-03-28T01:25:01.645Z,11.9
2024-03-28T01:26:01.493Z,11.9
2024-03-28T01:27:01.616Z,11.8
2024-03-28T01:28:01.546Z,11.8
2024-03-28T01:29:01.625Z,11.8
2024-03-28T01:30:01.558Z,11.7
2024-03-28T01:31:01.607Z,11.7
2024-03-28T01:32:01.713Z,11.6
2024-03-28T01:33:01.661Z,11.6
2024-03-28T01:34:01.563Z,11.6
2024-03-28T01:35:01.630Z,11.5
2024-03-28T01:36:01.677Z,11.5
2024-03-28T01:38:01.546Z,11.4
2024-03-28T01:39:01.507Z,11.4
2024-03-28T01:40:01.688Z,11.4
2024-03-28T01:41:01.543Z,11.4
2024-03-28T01:42:01.613Z,11.3
2024-03-28T01:43:01.593Z,11.3
2024-03-28T01:44:01.610Z,11.3
2024-03-28T01:45:01.623Z,11.3
2024-03-28T01:46:05.761Z,11.2
2024-03-28T01:49:01.680Z,11.2
2024-03-28T01:50:01.582Z,11.2
2024-03-28T01:51:01.647Z,11.2
2024-03-28T01:52:01.753Z,11.2
2024-03-28T01:54:01.505Z,11.1
2024-03-28T01:55:01.563Z,11.1
2024-03-28T01:56:01.568Z,11.1
2024-03-28T01:57:01.558Z,11.1
2024-03-28T01:58:01.654Z,11
2024-03-28T01:59:01.572Z,11
2024-03-28T02:00:01.579Z,10.9
2024-03-28T02:01:01.460Z,10.9
2024-03-28T02:02:01.613Z,10.9
2024-03-28T02:03:01.690Z,10.9
2024-03-28T02:04:01.525Z,10.9
2024-03-28T02:05:01.809Z,10.8
2024-03-28T02:06:01.516Z,10.8
2024-03-28T02:07:01.644Z,10.8
2024-03-28T02:08:01.556Z,10.7
2024-03-28T02:10:01.520Z,10.6
2024-03-28T02:11:01.574Z,10.6
2024-03-28T02:12:01.516Z,10.5
2024-03-28T02:13:01.598Z,10.4
2024-03-28T02:14:01.489Z,10.4
2024-03-28T02:15:01.595Z,10.4
2024-03-28T02:16:01.537Z,10.3
2024-03-28T02:17:01.567Z,10.3
2024-03-28T02:18:01.626Z,10.2
2024-03-28T02:19:01.467Z,10.2
2024-03-28T02:20:01.568Z,10.2
2024-03-28T02:21:01.521Z,10.1
2024-03-28T02:22:01.532Z,10.1
2024-03-28T02:23:01.586Z,10.1
2024-03-28T02:24:01.493Z,10.1
2024-03-28T02:25:01.586Z,10
2024-03-28T02:26:01.510Z,10
2024-03-28T02:27:01.534Z,9.9
2024-03-28T02:28:01.559Z,9.9
2024-03-28T02:29:01.523Z,9.9
2024-03-28T02:30:01.652Z,9.9
2024-03-28T02:31:01.519Z,9.9
2024-03-28T02:32:01.465Z,9.9
2024-03-28T02:33:01.566Z,9.8
2024-03-28T02:34:01.492Z,9.8
2024-03-28T02:35:01.546Z,9.8
2024-03-28T02:36:01.508Z,9.8
2024-03-28T02:37:01.520Z,9.8
2024-03-28T02:38:01.542Z,9.8
2024-03-28T02:39:01.509Z,9.8
2024-03-28T02:40:01.638Z,9.8
2024-03-28T02:41:01.481Z,9.8
2024-03-28T02:42:01.537Z,9.8
2024-03-28T02:43:01.534Z,9.7
2024-03-28T02:44:01.751Z,9.7
2024-03-28T02:46:01.528Z,9.7
2024-03-28T02:47:01.495Z,9.7
2024-03-28T02:48:01.542Z,9.6
2024-03-28T02:49:01.526Z,9.6
2024-03-28T02:50:01.593Z,9.6
2024-03-28T02:51:01.681Z,9.6
2024-03-28T02:52:01.541Z,9.6
2024-03-28T02:53:01.481Z,9.6
2024-03-28T02:54:01.576Z,9.5
2024-03-28T02:55:01.534Z,9.5
2024-03-28T02:56:01.530Z,9.4
2024-03-28T02:57:01.485Z,9.4
2024-03-28T02:58:01.536Z,9.4
2024-03-28T02:59:01.507Z,9.4
2024-03-28T03:00:01.517Z,9.3
2024-03-28T03:01:01.545Z,9.2
2024-03-28T03:02:01.624Z,9.2
2024-03-28T03:03:01.523Z,9.2
2024-03-28T03:04:01.483Z,9.2
2024-03-28T03:05:01.602Z,9.2
2024-03-28T03:06:01.517Z,9.1
2024-03-28T03:07:01.538Z,9.1
2024-03-28T03:08:01.553Z,9.1
2024-03-28T03:09:01.529Z,9.1
2024-03-28T03:10:01.502Z,9.1
2024-03-28T03:11:01.536Z,9.1
2024-03-28T03:12:01.555Z,9.1
2024-03-28T03:13:01.676Z,9.1
2024-03-28T03:14:01.459Z,9
2024-03-28T03:15:01.604Z,9
2024-03-28T03:16:01.533Z,9
2024-03-28T03:17:01.459Z,9
2024-03-28T03:18:01.564Z,9
2024-03-28T03:19:01.532Z,9
2024-03-28T03:20:01.667Z,9
2024-03-28T03:21:01.522Z,9
2024-03-28T03:22:01.510Z,9
2024-03-28T03:23:01.522Z,9
2024-03-28T03:24:01.521Z,9
2024-03-28T03:25:01.622Z,9
2024-03-28T03:26:01.499Z,9
2024-03-28T03:27:01.576Z,9
2024-03-28T03:28:01.536Z,9
2024-03-28T03:29:01.567Z,9
2024-03-28T03:30:01.513Z,9
2024-03-28T03:31:01.508Z,9
2024-03-28T03:32:01.539Z,9
2024-03-28T03:33:01.732Z,9
2024-03-28T03:35:01.547Z,8.9
2024-03-28T03:36:01.508Z,8.9
2024-03-28T03:37:01.478Z,8.9
2024-03-28T03:38:01.534Z,8.9
2024-03-28T03:39:01.507Z,8.9
2024-03-28T03:40:01.595Z,8.9
2024-03-28T03:41:01.485Z,8.9
2024-03-28T03:42:01.560Z,8.9
2024-03-28T03:43:01.584Z,8.8
2024-03-28T03:44:01.493Z,8.8
2024-03-28T03:45:01.518Z,8.8
2024-03-28T03:46:01.469Z,8.8
2024-03-28T03:47:01.586Z,8.8
2024-03-28T03:48:02.205Z,8.7
2024-03-28T03:50:01.591Z,8.6
2024-03-28T03:51:01.522Z,8.6
2024-03-28T03:53:01.600Z,8.5
2024-03-28T03:54:01.523Z,8.4
2024-03-28T03:55:01.582Z,8.4
2024-03-28T03:56:01.500Z,8.4
2024-03-28T03:57:01.599Z,8.4
2024-03-28T03:58:01.486Z,8.4
2024-03-28T03:59:01.523Z,8.3
2024-03-28T04:00:01.547Z,8.3
2024-03-28T04:01:01.523Z,8.2
2024-03-28T04:02:01.541Z,8.2
2024-03-28T04:03:01.522Z,8.2
2024-03-28T04:04:01.536Z,8.2
2024-03-28T04:05:01.567Z,8.2
2024-03-28T04:06:01.485Z,8.2
2024-03-28T04:07:01.523Z,8.1
2024-03-28T04:08:01.534Z,8.1
2024-03-28T04:09:01.484Z,8.1
2024-03-28T04:10:01.505Z,8.1
2024-03-28T04:11:01.574Z,8.1
2024-03-28T04:12:01.499Z,8.1
2024-03-28T04:13:01.593Z,8
2024-03-28T04:14:01.516Z,8
2024-03-28T04:15:01.620Z,8
2024-03-28T04:16:01.634Z,8
2024-03-28T04:17:01.461Z,7.9
2024-03-28T04:18:01.691Z,7.9
2024-03-28T04:20:01.601Z,7.9
2024-03-28T04:21:01.511Z,7.9
2024-03-28T04:22:01.548Z,7.8
2024-03-28T04:23:01.489Z,7.8
2024-03-28T04:24:01.606Z,7.8
2024-03-28T04:25:01.484Z,7.8
2024-03-28T04:26:01.479Z,7.8
2024-03-28T04:27:07.860Z,7.8
2024-03-28T04:29:01.517Z,7.8
2024-03-28T04:30:03.532Z,7.8
2024-03-28T04:32:01.544Z,7.8
2024-03-28T04:33:01.681Z,7.8
2024-03-28T04:34:01.721Z,7.7
2024-03-28T04:35:01.431Z,7.7
2024-03-28T04:36:01.519Z,7.7
2024-03-28T04:37:01.462Z,7.7
2024-03-28T04:38:01.574Z,7.7
2024-03-28T04:39:01.529Z,7.7
2024-03-28T04:40:01.554Z,7.7
2024-03-28T04:41:01.535Z,7.7
2024-03-28T04:42:01.488Z,7.7
2024-03-28T04:43:01.572Z,7.7
2024-03-28T04:44:01.541Z,7.7
2024-03-28T04:45:01.616Z,7.7
2024-03-28T04:46:01.545Z,7.7
2024-03-28T04:47:01.609Z,7.7
2024-03-28T04:48:01.628Z,7.7
2024-03-28T04:49:01.486Z,7.7
2024-03-28T04:50:01.695Z,7.7
2024-03-28T04:51:01.491Z,7.7
2024-03-28T04:52:01.548Z,7.7
2024-03-28T04:53:01.491Z,7.7
2024-03-28T04:54:01.588Z,7.7
2024-03-28T04:55:01.503Z,7.7
2024-03-28T04:56:01.583Z,7.7
2024-03-28T04:57:01.497Z,7.7
2024-03-28T04:58:01.600Z,7.8
2024-03-28T04:59:01.502Z,7.8
2024-03-28T05:00:01.639Z,7.8
2024-03-28T05:01:01.558Z,7.8
2024-03-28T05:03:01.554Z,7.8
2024-03-28T05:04:01.564Z,7.8
2024-03-28T05:05:01.504Z,7.8
2024-03-28T05:06:01.591Z,7.8
2024-03-28T05:07:01.596Z,7.8
2024-03-28T05:08:01.516Z,7.8
2024-03-28T05:09:01.510Z,7.8
2024-03-28T05:10:01.551Z,7.8
2024-03-28T05:11:01.534Z,7.8
2024-03-28T05:12:01.460Z,7.8
2024-03-28T05:13:01.522Z,7.8
2024-03-28T05:14:01.481Z,7.8
2024-03-28T05:15:01.601Z,7.8
2024-03-28T05:16:01.558Z,7.9
2024-03-28T05:17:01.581Z,7.9
2024-03-28T05:18:01.622Z,7.9
2024-03-28T05:19:01.565Z,7.9
2024-03-28T05:20:01.508Z,7.9
2024-03-28T05:21:01.601Z,7.9
2024-03-28T05:22:01.545Z,7.9
2024-03-28T05:23:01.549Z,7.9
2024-03-28T05:24:01.596Z,7.9
2024-03-28T05:25:01.526Z,7.9
2024-03-28T05:26:01.583Z,8
2024-03-28T05:27:01.486Z,8
2024-03-28T05:28:01.578Z,8
2024-03-28T05:29:01.568Z,8
2024-03-28T05:30:01.693Z,8
2024-03-28T05:31:01.466Z,8
2024-03-28T05:32:01.584Z,8
2024-03-28T05:33:01.526Z,8
2024-03-28T05:34:01.586Z,8.1
2024-03-28T05:35:01.489Z,8.1
2024-03-28T05:36:01.572Z,8.1
2024-03-28T05:37:01.581Z,8.1
2024-03-28T05:38:01.488Z,8.1
2024-03-28T05:39:01.509Z,8.1
2024-03-28T05:40:01.616Z,8.2
2024-03-28T05:41:01.633Z,8.2
2024-03-28T05:42:01.558Z,8.2
2024-03-28T05:44:01.567Z,8.3
2024-03-28T05:45:01.500Z,8.4
2024-03-28T05:46:01.606Z,8.4
2024-03-28T05:47:01.506Z,8.4
2024-03-28T05:49:01.539Z,8.5
2024-03-28T05:50:01.569Z,8.6
2024-03-28T05:51:01.522Z,8.6
2024-03-28T05:52:01.455Z,8.6
2024-03-28T05:53:01.559Z,8.6
2024-03-28T05:54:01.518Z,8.7
2024-03-28T05:55:01.558Z,8.7
2024-03-28T05:56:01.525Z,8.8
2024-03-28T05:57:01.576Z,8.8
2024-03-28T05:58:01.607Z,8.8
2024-03-28T05:59:01.501Z,8.8
2024-03-28T06:00:01.694Z,8.9
2024-03-28T06:01:01.540Z,8.9
2024-03-28T06:03:01.531Z,8.9
2024-03-28T06:04:01.497Z,8.9
2024-03-28T06:05:01.556Z,9
2024-03-28T06:06:01.539Z,9.1
2024-03-28T06:07:01.434Z,9.1
2024-03-28T06:08:01.594Z,9.2
2024-03-28T06:09:01.517Z,9.3
2024-03-28T06:10:01.676Z,9.4
2024-03-28T06:11:01.559Z,9.5
2024-03-28T06:12:01.524Z,9.7
2024-03-28T06:13:01.639Z,9.8
2024-03-28T06:14:01.502Z,9.9
2024-03-28T06:15:01.617Z,10
2024-03-28T06:17:01.551Z,10.2
2024-03-28T06:18:01.574Z,10.1
2024-03-28T06:19:01.517Z,10.1
2024-03-28T06:20:01.605Z,10
2024-03-28T06:21:01.631Z,9.9
2024-03-28T06:22:01.516Z,9.9
2024-03-28T06:23:01.490Z,9.8
2024-03-28T06:24:01.599Z,9.8
2024-03-28T06:25:01.529Z,9.8
2024-03-28T06:26:01.554Z,9.8
2024-03-28T06:27:01.510Z,9.9
2024-03-28T06:28:01.544Z,10.1
2024-03-28T06:29:01.596Z,10.2
2024-03-28T06:30:01.627Z,10.5
2024-03-28T06:31:01.703Z,10.8
2024-03-28T06:32:01.440Z,11
2024-03-28T06:33:01.555Z,11.2
2024-03-28T06:34:01.517Z,11.5
2024-03-28T06:35:01.640Z,11.8
2024-03-28T06:36:01.539Z,12.1
2024-03-28T06:37:01.556Z,11.9
2024-03-28T06:38:01.589Z,11.6
2024-03-28T06:39:01.507Z,11.4
2024-03-28T06:40:01.572Z,11.3
2024-03-28T06:41:01.549Z,11.2
2024-03-28T06:42:01.563Z,11.2
2024-03-28T06:43:01.475Z,11.2
2024-03-28T06:44:01.564Z,11.2
2024-03-28T06:45:01.529Z,11.2
2024-03-28T06:46:01.524Z,11.2
2024-03-28T06:47:01.556Z,11.4
2024-03-28T06:48:01.617Z,11.4
2024-03-28T06:49:01.554Z,11.6
2024-03-28T06:50:01.501Z,11.7
2024-03-28T06:51:01.513Z,13.1
2024-03-28T06:52:01.458Z,14.6
2024-03-28T06:53:01.557Z,14.4
2024-03-28T06:54:01.495Z,15
2024-03-28T06:55:01.556Z,15.9
2024-03-28T06:56:01.537Z,16.7
2024-03-28T06:57:01.593Z,17.2
2024-03-28T06:58:01.569Z,17.8
2024-03-28T06:59:01.497Z,18.2
2024-03-28T07:00:01.641Z,18.3
2024-03-28T07:01:01.483Z,18.5
2024-03-28T07:02:01.747Z,18.4
2024-03-28T07:03:01.500Z,17.9
2024-03-28T07:04:01.599Z,17.6
2024-03-28T07:05:01.637Z,16.8
2024-03-28T07:06:24.139Z,16.2
2024-03-28T07:08:01.628Z,15.6
2024-03-28T07:09:01.586Z,15.8
2024-03-28T07:10:01.716Z,16.6
2024-03-28T07:11:01.534Z,16
2024-03-28T07:12:01.579Z,15.7
2024-03-28T07:13:01.525Z,16.2
2024-03-28T07:14:01.605Z,16.1
2024-03-28T07:15:01.641Z,16.2
2024-03-28T07:16:01.528Z,15.7
2024-03-28T07:17:01.589Z,15.3
2024-03-28T07:18:01.525Z,15.6
2024-03-28T07:20:01.685Z,17.3
2024-03-28T07:21:01.487Z,16.4
2024-03-28T07:22:01.569Z,15.8
2024-03-28T07:23:01.661Z,15.5
2024-03-28T07:24:01.545Z,16.1
2024-03-28T07:25:01.537Z,17.2
2024-03-28T07:26:01.541Z,17.1
2024-03-28T07:27:01.541Z,17.9
2024-03-28T07:28:01.518Z,19.4
2024-03-28T07:29:05.323Z,20.6
2024-03-28T07:31:01.544Z,19.9
2024-03-28T07:32:01.619Z,20.6
2024-03-28T07:33:01.507Z,21.7
2024-03-28T07:34:01.528Z,22.3
2024-03-28T07:35:01.573Z,21.8
2024-03-28T07:36:01.569Z,22.2
2024-03-28T07:37:01.537Z,22.8
2024-03-28T07:39:01.591Z,23.4
2024-03-28T07:40:01.568Z,23.6
2024-03-28T07:41:01.778Z,23.6
2024-03-28T07:42:01.525Z,23.7
2024-03-28T07:43:01.638Z,23.7
2024-03-28T07:44:01.508Z,23.6
2024-03-28T07:45:01.526Z,23.6
2024-03-28T07:46:01.621Z,23.6
2024-03-28T07:47:01.528Z,23.6
2024-03-28T07:48:01.580Z,23.6
2024-03-28T07:49:01.507Z,23.6
2024-03-28T07:50:01.560Z,23.6
2024-03-28T07:51:01.608Z,23.6
2024-03-28T07:52:01.496Z,23.5
2024-03-28T07:53:01.517Z,23.5
2024-03-28T07:54:01.552Z,23.6
2024-03-28T07:55:01.524Z,23.6
2024-03-28T07:56:01.517Z,23.8
2024-03-28T07:57:01.564Z,23.9
2024-03-28T07:58:01.521Z,23.9
2024-03-28T07:59:01.564Z,23.9
2024-03-28T08:00:01.686Z,23.8
2024-03-28T08:01:01.526Z,22.6
2024-03-28T08:02:01.559Z,22.5
2024-03-28T08:03:01.764Z,22.8
2024-03-28T08:04:01.596Z,22.9
2024-03-28T08:05:01.534Z,23.2
2024-03-28T08:06:01.496Z,22.2
2024-03-28T08:07:01.567Z,21.5
2024-03-28T08:08:01.715Z,22.3
2024-03-28T08:10:01.603Z,22.4
2024-03-28T08:11:01.558Z,21
2024-03-28T08:12:01.589Z,20.9
2024-03-28T08:13:01.760Z,22.1
2024-03-28T08:14:01.532Z,22.3
2024-03-28T08:15:01.466Z,21.9
2024-03-28T08:16:01.520Z,22.8
2024-03-28T08:17:01.548Z,22.9
2024-03-28T08:18:01.499Z,23.5
2024-03-28T08:19:01.544Z,23.9
2024-03-28T08:20:01.531Z,24.2
2024-03-28T08:21:01.678Z,24.4
2024-03-28T08:22:01.526Z,24.6
2024-03-28T08:23:01.634Z,24.9
2024-03-28T08:24:01.596Z,25
2024-03-28T08:25:01.691Z,25.2
2024-03-28T08:26:01.517Z,25.4
2024-03-28T08:27:01.576Z,25.6
2024-03-28T08:28:01.519Z,25.7
2024-03-28T08:29:01.556Z,25.7
2024-03-28T08:30:01.609Z,25.6
2024-03-28T08:32:01.536Z,25.7
2024-03-28T08:33:01.477Z,25.8
2024-03-28T08:34:01.523Z,25.9
2024-03-28T08:35:01.507Z,25.9
2024-03-28T08:36:01.580Z,25.9
2024-03-28T08:37:01.531Z,25.9
2024-03-28T08:38:01.628Z,25.9
2024-03-28T08:39:01.570Z,26
2024-03-28T08:40:01.570Z,26.1
2024-03-28T08:41:01.511Z,26.2
2024-03-28T08:43:04.504Z,26.6
2024-03-28T08:45:01.642Z,26.8
2024-03-28T08:46:01.529Z,26.9
2024-03-28T08:47:01.553Z,27.2
2024-03-28T08:48:01.525Z,27.4
2024-03-28T08:49:01.587Z,27.1
2024-03-28T08:50:01.608Z,27.2
2024-03-28T08:51:01.634Z,27.5
2024-03-28T08:52:01.592Z,27.6
2024-03-28T08:53:01.714Z,27.6
2024-03-28T08:54:01.614Z,27.8
2024-03-28T08:55:01.554Z,28
2024-03-28T08:56:01.610Z,28.2
2024-03-28T08:57:01.646Z,28.5
2024-03-28T08:58:01.556Z,28.8
2024-03-28T08:59:01.547Z,29.1
2024-03-28T09:00:01.604Z,29.2
2024-03-28T09:01:01.529Z,29.5
2024-03-28T09:02:01.522Z,29.7
2024-03-28T09:03:01.562Z,29.9
2024-03-28T09:04:01.512Z,30.1
2024-03-28T09:05:01.567Z,30.4
2024-03-28T09:06:01.711Z,30.5
2024-03-28T09:08:01.582Z,30.6
2024-03-28T09:09:01.538Z,30.6
2024-03-28T09:10:01.672Z,30.6
2024-03-28T09:11:01.537Z,30.5
2024-03-28T09:12:01.576Z,30.5
2024-03-28T09:13:01.506Z,30.5
2024-03-28T09:14:01.602Z,30.4
2024-03-28T09:15:01.508Z,30.4
2024-03-28T09:16:01.515Z,30.3
2024-03-28T09:17:01.557Z,30.3
2024-03-28T09:18:01.700Z,30.4
2024-03-28T09:20:01.594Z,30.6
2024-03-28T09:21:01.588Z,30.6
2024-03-28T09:22:01.591Z,30.6
2024-03-28T09:23:01.501Z,30.6
2024-03-28T09:24:01.551Z,30.6
2024-03-28T09:25:01.564Z,30.7
2024-03-28T09:26:01.609Z,30.4
2024-03-28T09:27:01.517Z,29.9
2024-03-28T09:29:01.550Z,30.3
2024-03-28T09:30:01.565Z,30.4
2024-03-28T09:31:01.651Z,30.4
2024-03-28T09:32:01.515Z,30.6
2024-03-28T09:33:01.650Z,30.8
2024-03-28T09:34:01.874Z,31.1
2024-03-28T09:35:01.602Z,31.1
2024-03-28T09:37:01.601Z,31.2
2024-03-28T09:38:01.567Z,31.4
2024-03-28T09:39:01.596Z,31.5
2024-03-28T09:40:05.676Z,31.6
2024-03-28T09:42:01.508Z,31.8
2024-03-28T09:43:01.516Z,31.8
2024-03-28T09:44:01.515Z,31.8
2024-03-28T09:45:01.527Z,31.8
2024-03-28T09:46:01.582Z,31.8
2024-03-28T09:47:01.487Z,31.8
2024-03-28T09:48:01.520Z,31.9
2024-03-28T09:49:01.634Z,31.9
2024-03-28T09:51:01.599Z,31.8
2024-03-28T09:52:01.522Z,31.8
2024-03-28T09:53:01.574Z,31.8
2024-03-28T09:54:01.499Z,31.9
2024-03-28T09:55:01.584Z,32.1
2024-03-28T09:56:01.516Z,32.2
2024-03-28T09:57:01.553Z,32.4
2024-03-28T09:58:01.520Z,32.4
2024-03-28T09:59:01.607Z,32.6
2024-03-28T10:00:01.540Z,32.5
2024-03-28T10:01:01.539Z,32.9
2024-03-28T10:02:01.567Z,33.2
2024-03-28T10:03:01.711Z,32.9
2024-03-28T10:05:01.619Z,33.5
2024-03-28T10:06:01.633Z,33.7
2024-03-28T10:07:01.502Z,33.8
2024-03-28T10:08:01.491Z,33.8
2024-03-28T10:09:01.500Z,33.9
2024-03-28T10:10:01.609Z,33.4
2024-03-28T10:11:01.522Z,32.7
2024-03-28T10:12:01.537Z,32.9
2024-03-28T10:13:01.552Z,33.5
2024-03-28T10:14:02.532Z,33
2024-03-28T10:16:01.577Z,29.6
2024-03-28T10:17:01.782Z,30.1
2024-03-28T10:18:01.489Z,29.1
2024-03-28T10:19:01.550Z,29.4
2024-03-28T10:20:01.562Z,27.8
2024-03-28T10:21:01.542Z,26.6
2024-03-28T10:22:01.497Z,26.6
2024-03-28T10:23:01.623Z,25.9
2024-03-28T10:24:01.506Z,26
2024-03-28T10:25:01.528Z,25.8
2024-03-28T10:26:01.527Z,25.1
2024-03-28T10:27:01.477Z,24.4
2024-03-28T10:28:01.534Z,23.6
2024-03-28T10:29:01.621Z,22.8
2024-03-28T10:30:01.526Z,22.3
2024-03-28T10:31:01.608Z,21.8
2024-03-28T10:32:01.835Z,21.4
2024-03-28T10:34:01.612Z,20.6
2024-03-28T10:35:01.568Z,20.6
2024-03-28T10:36:01.540Z,20.6
2024-03-28T10:37:01.570Z,22.2
2024-03-28T10:38:20.898Z,22.1
2024-03-28T10:40:01.619Z,24.2
2024-03-28T10:41:01.654Z,23.4
2024-03-28T10:42:01.682Z,22.9
2024-03-28T10:43:01.525Z,22.8
2024-03-28T10:44:01.573Z,22.6
2024-03-28T10:45:01.595Z,22.3
2024-03-28T10:46:01.523Z,22
2024-03-28T10:47:01.655Z,21.6
2024-03-28T10:48:01.554Z,21.2
2024-03-28T10:49:01.702Z,20.8
2024-03-28T10:50:01.520Z,20.3
2024-03-28T10:51:01.537Z,19.9
2024-03-28T10:52:01.865Z,19.6
2024-03-28T10:53:01.506Z,19.4
2024-03-28T10:54:24.120Z,19.4
2024-03-28T10:56:01.554Z,19.5
2024-03-28T10:57:01.496Z,19.4
2024-03-28T10:58:01.534Z,19.4
2024-03-28T10:59:01.562Z,19.6
2024-03-28T11:00:01.664Z,19.8
2024-03-28T11:01:16.558Z,20.6
2024-03-28T11:03:01.505Z,23.4
2024-03-28T11:04:01.516Z,24.2
2024-03-28T11:05:01.688Z,23.9
2024-03-28T11:06:01.452Z,24.4
2024-03-28T11:07:01.576Z,26.7
2024-03-28T11:08:01.493Z,27.4
2024-03-28T11:09:01.597Z,26.4
2024-03-28T11:10:01.628Z,26.8
2024-03-28T11:11:01.461Z,26.1
2024-03-28T11:12:01.646Z,25.6
2024-03-28T11:13:01.523Z,25.3
2024-03-28T11:14:01.509Z,24.8
2024-03-28T11:15:01.528Z,24.1
2024-03-28T11:16:01.540Z,23.5
2024-03-28T11:18:02.077Z,22.2
2024-03-28T11:19:01.403Z,21.7
2024-03-28T11:20:01.650Z,21.4
2024-03-28T11:21:01.465Z,21.1
2024-03-28T11:22:01.606Z,20.8
2024-03-28T11:23:01.540Z,20.4
2024-03-28T11:24:01.580Z,19.9
2024-03-28T11:25:01.507Z,19.5
2024-03-28T11:26:01.590Z,19.2
2024-03-28T11:27:01.569Z,19.1
2024-03-28T11:28:02.405Z,18.9
2024-03-28T11:29:01.490Z,18.8
2024-03-28T11:30:01.651Z,18.5
2024-03-28T11:31:01.500Z,18.3
2024-03-28T11:32:01.551Z,18.1
2024-03-28T11:33:01.514Z,17.9
2024-03-28T11:34:01.482Z,17.8
2024-03-28T11:35:01.591Z,17.6
2024-03-28T11:36:01.696Z,17.4
2024-03-28T11:38:01.593Z,17.2
2024-03-28T11:39:01.550Z,17
2024-03-28T11:40:01.597Z,16.8
2024-03-28T11:41:01.522Z,16.6
2024-03-28T11:42:01.529Z,16.3
2024-03-28T11:43:01.493Z,16.1
2024-03-28T11:44:01.729Z,15.9
2024-03-28T11:45:01.530Z,15.8
2024-03-28T11:46:01.625Z,15.8
2024-03-28T11:47:01.592Z,15.7
2024-03-28T11:48:01.631Z,15.6
2024-03-28T11:49:01.512Z,15.6
2024-03-28T11:50:01.673Z,15.5
2024-03-28T11:51:01.566Z,15.4
2024-03-28T11:52:01.609Z,15.4
2024-03-28T11:53:01.503Z,15.4
2024-03-28T11:54:06.129Z,15.4
2024-03-28T11:56:01.591Z,15.4
2024-03-28T11:57:01.583Z,15.4
2024-03-28T11:58:01.494Z,15.4
2024-03-28T11:59:01.569Z,15.4
2024-03-28T12:00:01.502Z,15.6
2024-03-28T12:01:01.551Z,15.8
2024-03-28T12:02:01.495Z,16
2024-03-28T12:03:01.571Z,16.3
2024-03-28T12:04:01.539Z,16.6
2024-03-28T12:05:01.793Z,16.8
2024-03-28T12:06:01.508Z,16.9
2024-03-28T12:07:01.576Z,17.1
2024-03-28T12:08:01.594Z,17.2
2024-03-28T12:09:01.526Z,17.4
2024-03-28T12:10:01.792Z,17.7
2024-03-28T12:11:01.481Z,18.2
2024-03-28T12:12:01.546Z,18.7
2024-03-28T12:13:01.510Z,18.9
2024-03-28T12:14:01.535Z,18.9
2024-03-28T12:15:01.527Z,18.9
2024-03-28T12:16:01.497Z,18.9
2024-03-28T12:17:01.583Z,18.9
2024-03-28T12:18:01.533Z,18.9
2024-03-28T12:19:01.605Z,18.9
2024-03-28T12:20:01.476Z,18.8
2024-03-28T12:21:01.543Z,18.8
2024-03-28T12:22:01.496Z,18.8
2024-03-28T12:23:01.520Z,18.7
2024-03-28T12:24:01.556Z,18.6
2024-03-28T12:25:01.930Z,18.4
2024-03-28T12:27:01.520Z,18.4
2024-03-28T12:28:01.518Z,18.8
2024-03-28T12:29:01.616Z,19.2
2024-03-28T12:30:01.546Z,19.6
2024-03-28T12:32:01.550Z,21.2
2024-03-28T12:33:01.525Z,21.1
2024-03-28T12:34:01.558Z,20.9
2024-03-28T12:35:01.494Z,20.8
2024-03-28T12:36:01.502Z,20.4
2024-03-28T12:37:01.568Z,20.1
2024-03-28T12:39:01.603Z,19.8
2024-03-28T12:40:01.647Z,20.1
2024-03-28T12:41:01.576Z,21.1
2024-03-28T12:42:01.500Z,21.1
2024-03-28T12:43:01.552Z,21.9
2024-03-28T12:44:01.496Z,23
2024-03-28T12:45:24.870Z,22.5
2024-03-28T12:47:01.557Z,21.2
2024-03-28T12:48:01.519Z,20.5
2024-03-28T12:49:01.578Z,19.9
2024-03-28T12:50:01.528Z,19.4
2024-03-28T12:51:01.609Z,19.1
2024-03-28T12:52:01.520Z,18.9
2024-03-28T12:53:01.499Z,18.9
2024-03-28T12:54:01.554Z,18.9
2024-03-28T12:55:01.644Z,18.9
2024-03-28T12:56:01.505Z,18.8
2024-03-28T12:58:01.545Z,18.8
2024-03-28T12:59:01.568Z,18.7
2024-03-28T13:00:01.617Z,18.6
2024-03-28T13:01:01.569Z,18.6
2024-03-28T13:02:01.530Z,18.4
2024-03-28T13:03:01.695Z,18.4
2024-03-28T13:05:01.565Z,18.4
2024-03-28T13:06:01.608Z,0
2024-03-28T13:07:01.553Z,18.2
2024-03-28T13:08:01.495Z,18.2
2024-03-28T13:09:01.650Z,18.4
2024-03-28T13:10:01.538Z,18.4
2024-03-28T13:11:01.626Z,18.4
2024-03-28T13:12:01.561Z,18.2
2024-03-28T13:13:01.497Z,18
2024-03-28T13:14:01.548Z,17.8
2024-03-28T13:15:01.672Z,17.6
2024-03-28T13:16:01.524Z,17.3
2024-03-28T13:17:01.554Z,17.2
2024-03-28T13:18:01.554Z,17.1
2024-03-28T13:19:01.559Z,17.1
2024-03-28T13:20:01.561Z,17
2024-03-28T13:21:01.525Z,16.9
2024-03-28T13:23:01.583Z,16.6
2024-03-28T13:24:01.500Z,16.4
2024-03-28T13:25:01.755Z,16.2
2024-03-28T13:28:01.597Z,15.9
2024-03-28T13:29:01.487Z,15.8
2024-03-28T13:30:01.574Z,15.6
2024-03-28T13:31:01.495Z,15.4
2024-03-28T13:32:01.516Z,15.4
2024-03-28T13:33:01.512Z,15.3
2024-03-28T13:34:01.520Z,15.2
2024-03-28T13:35:01.617Z,15.1
2024-03-28T13:36:01.647Z,15.1
2024-03-28T13:38:01.575Z,14.8
2024-03-28T13:39:01.490Z,14.6
2024-03-28T13:40:01.620Z,14.5
2024-03-28T13:42:01.572Z,14.3
2024-03-28T13:44:01.573Z,14.6
2024-03-28T13:45:01.617Z,14.9
2024-03-28T13:46:01.544Z,15.2
2024-03-28T13:47:01.596Z,15.4
2024-03-28T13:48:01.524Z,15.5
2024-03-28T13:49:01.569Z,15.5
2024-03-28T13:50:01.694Z,15.4
2024-03-28T13:52:01.567Z,15.2
2024-03-28T13:53:01.459Z,15.1
2024-03-28T13:54:01.559Z,14.8
2024-03-28T13:55:01.510Z,14.7
2024-03-28T13:56:01.574Z,14.6
2024-03-28T13:57:01.606Z,14.5
2024-03-28T13:58:01.498Z,14.6
2024-03-28T13:59:01.505Z,14.9
2024-03-28T14:00:01.603Z,15.3
2024-03-28T14:01:01.549Z,15.8
2024-03-28T14:02:01.480Z,16.8
2024-03-28T14:03:01.531Z,18.4
2024-03-28T14:04:01.530Z,19.7
2024-03-28T14:05:01.608Z,20.8
2024-03-28T14:06:01.531Z,21.3
2024-03-28T14:07:01.575Z,21.5
2024-03-28T14:09:01.577Z,22.4
2024-03-28T14:10:01.523Z,22
2024-03-28T14:11:01.546Z,20.9
2024-03-28T14:12:01.509Z,20.1
2024-03-28T14:13:01.547Z,19.5
2024-03-28T14:14:01.549Z,18.9
2024-03-28T14:15:01.644Z,18.5
2024-03-28T14:16:01.571Z,18.1
2024-03-28T14:18:01.531Z,17.4
2024-03-28T14:19:01.514Z,17.2
2024-03-28T14:20:01.564Z,17.1
2024-03-28T14:21:01.526Z,16.9
2024-03-28T14:22:01.549Z,16.8
2024-03-28T14:23:01.482Z,16.8
2024-03-28T14:24:01.497Z,17
2024-03-28T14:25:01.593Z,17.4
2024-03-28T14:26:01.577Z,18.9
2024-03-28T14:27:01.677Z,20.2
2024-03-28T14:28:01.758Z,20.6